Mount Shasta, California
Current Conditions -  °F | °C
As of 5:08 PM on Friday 19 Dec 2014 (Local Time) from KMHS Reporting Station
Light Rain Light Rain  
Wind Chill: 42°   Ceiling: 3300
Heat Index: 42°   Visibility: 10mi
Dew Point: 39°   Wind: 0mph
Humidity: 89%   Direction: NA
Pressure: 30.07"   Gusts: NA
Location:  41.31°N, 122.31°W
Report Text: KMHS 200108Z AUTO 00000KT 10SM -RA SCT010 BKN033 OVC065 06/04 A3007 RMK AO2 P0000 T00560039
Loading
Personal Weather Stations






























Interactive Weather Map New forecast layout! Learn more

10-Day Weather Forecast

Advertisements
Track Severe Weather on mobile